createdAt,value
2022-12-15T00:01:09.028Z,45.22
2022-12-15T00:04:13.861Z,45.80
2022-12-15T00:07:18.494Z,47.00
2022-12-15T00:10:24.051Z,48.65
2022-12-15T00:13:31.931Z,47.53
2022-12-15T00:16:37.265Z,48.08
2022-12-15T00:19:41.741Z,45.50
2022-12-15T00:22:46.609Z,43.83
2022-12-15T00:25:51.384Z,42.95
2022-12-15T00:28:57.807Z,44.70
2022-12-15T00:32:02.651Z,45.67
2022-12-15T00:35:07.301Z,52.22
2022-12-15T00:38:12.577Z,52.65
2022-12-15T00:41:00.224Z,53.25
2022-12-15T00:43:49.916Z,52.95
2022-12-15T00:46:54.666Z,46.55
2022-12-15T00:49:59.391Z,47.78
2022-12-15T00:53:04.387Z,43.63
2022-12-15T00:56:08.894Z,48.28
2022-12-15T00:59:15.199Z,47.13
2022-12-15T01:02:21.590Z,52.08
2022-12-15T01:05:26.779Z,47.60
2022-12-15T01:08:31.316Z,50.60
2022-12-15T01:11:36.199Z,48.45
2022-12-15T01:14:42.779Z,53.70
2022-12-15T01:17:47.672Z,55.05
2022-12-15T01:20:35.476Z,46.42
2022-12-15T01:23:23.304Z,50.15
2022-12-15T01:26:10.876Z,52.17
2022-12-15T01:28:58.227Z,51.03
2022-12-15T01:31:49.904Z,49.00
2022-12-15T01:34:37.837Z,49.05
2022-12-15T01:37:25.237Z,49.58
2022-12-15T01:40:33.558Z,47.15
2022-12-15T01:43:23.612Z,47.65
2022-12-15T01:46:12.689Z,49.72
2022-12-15T01:49:12.986Z,50.58
2022-12-15T01:52:02.752Z,50.58
2022-12-15T01:54:53.505Z,51.50
2022-12-15T01:57:41.869Z,55.97
2022-12-15T02:00:29.718Z,57.42
2022-12-15T02:03:17.224Z,51.35
2022-12-15T02:06:07.446Z,54.53
2022-12-15T02:09:00.218Z,52.85
2022-12-15T02:12:00.675Z,49.15
2022-12-15T02:15:00.038Z,47.00
2022-12-15T02:17:58.190Z,47.10
2022-12-15T02:20:53.401Z,48.03
2022-12-15T02:24:11.676Z,48.00
2022-12-15T02:27:30.015Z,50.72
2022-12-15T02:30:22.861Z,47.05
2022-12-15T02:33:21.834Z,46.60
2022-12-15T02:36:17.795Z,49.10
2022-12-15T02:39:06.469Z,49.67
2022-12-15T02:41:54.018Z,48.10
2022-12-15T02:44:46.529Z,50.40
2022-12-15T02:47:46.108Z,51.45
2022-12-15T02:50:53.604Z,54.10
2022-12-15T02:54:15.703Z,53.70
2022-12-15T02:57:08.734Z,55.45
2022-12-15T03:00:01.813Z,51.67
2022-12-15T03:02:53.984Z,54.60
2022-12-15T03:05:41.712Z,52.28
2022-12-15T03:08:30.050Z,51.50
2022-12-15T03:11:17.409Z,52.17
2022-12-15T03:14:05.351Z,50.35
2022-12-15T03:16:52.992Z,49.83
2022-12-15T03:19:42.223Z,50.85
2022-12-15T03:22:29.858Z,47.97
2022-12-15T03:25:17.446Z,48.10
2022-12-15T03:28:04.983Z,47.50
2022-12-15T03:30:52.347Z,48.33
2022-12-15T03:33:41.055Z,49.22
2022-12-15T03:36:30.050Z,45.42
2022-12-15T03:39:17.310Z,45.40
2022-12-15T03:42:04.762Z,45.55
2022-12-15T03:44:52.184Z,45.67
2022-12-15T03:47:42.648Z,44.25
2022-12-15T03:50:30.972Z,43.20
2022-12-15T03:53:19.883Z,41.00
2022-12-15T03:56:08.279Z,43.00
2022-12-15T03:58:56.125Z,40.90
2022-12-15T04:01:49.148Z,41.42
2022-12-15T04:04:37.180Z,39.40
2022-12-15T04:07:24.467Z,38.28
2022-12-15T04:10:14.213Z,40.42
2022-12-15T04:13:02.657Z,42.28
2022-12-15T04:15:50.089Z,39.00
2022-12-15T04:18:37.789Z,39.53
2022-12-15T04:21:25.353Z,38.95
2022-12-15T04:24:30.026Z,40.67
2022-12-15T04:27:36.658Z,43.10
2022-12-15T04:30:41.361Z,42.85
2022-12-15T04:33:46.078Z,36.47
2022-12-15T04:36:52.218Z,41.05
2022-12-15T04:39:59.713Z,38.63
2022-12-15T04:43:06.852Z,37.55
2022-12-15T04:46:11.898Z,38.58
2022-12-15T04:49:16.781Z,37.15
2022-12-15T04:52:22.062Z,38.55
2022-12-15T04:55:27.742Z,39.88
2022-12-15T04:58:34.166Z,39.08
2022-12-15T05:01:38.946Z,37.33
2022-12-15T05:04:43.945Z,37.08
2022-12-15T05:07:49.065Z,38.60
2022-12-15T05:10:53.747Z,38.03
2022-12-15T05:14:00.180Z,39.05
2022-12-15T05:17:04.917Z,38.50
2022-12-15T05:20:09.594Z,38.78
2022-12-15T05:23:15.490Z,39.03
2022-12-15T05:26:20.323Z,38.60
2022-12-15T05:29:27.396Z,38.42
2022-12-15T05:32:14.719Z,37.95
2022-12-15T05:35:02.432Z,38.60
2022-12-15T05:37:50.122Z,37.03
2022-12-15T05:40:37.420Z,38.03
2022-12-15T05:43:26.669Z,38.15
2022-12-15T05:46:15.969Z,43.75
2022-12-15T05:49:05.005Z,48.58
2022-12-15T05:51:52.695Z,51.20
2022-12-15T05:54:40.466Z,42.60
2022-12-15T05:57:28.103Z,38.45
2022-12-15T06:00:16.453Z,41.47
2022-12-15T06:03:05.506Z,40.05
2022-12-15T06:05:56.450Z,37.80
2022-12-15T06:08:44.654Z,40.38
2022-12-15T06:11:32.426Z,39.70
2022-12-15T06:14:20.105Z,41.88
2022-12-15T06:17:07.813Z,39.20
2022-12-15T06:19:56.575Z,42.80
2022-12-15T06:22:49.546Z,40.13
2022-12-15T06:25:37.388Z,39.70
2022-12-15T06:28:25.218Z,39.97
2022-12-15T06:31:14.592Z,38.33
2022-12-15T06:34:04.688Z,41.90
2022-12-15T06:36:53.851Z,38.88
2022-12-15T06:39:41.221Z,35.60
2022-12-15T06:42:28.513Z,36.22
2022-12-15T06:45:16.051Z,32.00
2022-12-15T06:48:04.001Z,37.60
2022-12-15T06:50:52.208Z,35.97
2022-12-15T06:53:42.700Z,35.83
2022-12-15T06:56:34.112Z,36.97
2022-12-15T06:59:22.404Z,36.22
2022-12-15T07:02:17.982Z,35.60
2022-12-15T07:05:09.371Z,41.80
2022-12-15T07:07:56.694Z,49.55
2022-12-15T07:10:45.991Z,40.38
2022-12-15T07:13:33.804Z,45.45
2022-12-15T07:16:23.475Z,41.50
2022-12-15T07:19:13.504Z,40.53
2022-12-15T07:22:01.542Z,42.72
2022-12-15T07:24:48.888Z,40.38
2022-12-15T07:27:37.672Z,41.47
2022-12-15T07:30:25.118Z,36.63
2022-12-15T07:33:12.507Z,40.40
2022-12-15T07:36:00.663Z,37.13
2022-12-15T07:38:50.669Z,39.20
2022-12-15T07:41:40.430Z,36.92
2022-12-15T07:44:29.717Z,34.97
2022-12-15T07:47:17.450Z,40.55
2022-12-15T07:50:06.011Z,35.72
2022-12-15T07:52:53.691Z,35.40
2022-12-15T07:56:05.556Z,32.50
2022-12-15T07:58:49.538Z,33.50
2022-12-15T08:01:38.741Z,30.40
2022-12-15T08:04:26.831Z,32.10
2022-12-15T08:07:14.530Z,31.55
2022-12-15T08:10:01.871Z,32.25
2022-12-15T08:12:49.731Z,35.67
2022-12-15T08:15:38.578Z,33.75
2022-12-15T08:18:27.518Z,62.78
2022-12-15T08:21:15.386Z,42.55
2022-12-15T08:24:03.184Z,43.90
2022-12-15T08:26:51.222Z,37.28
2022-12-15T08:29:54.049Z,33.60
2022-12-15T08:32:41.555Z,30.75
2022-12-15T08:35:55.255Z,33.97
2022-12-15T08:38:39.341Z,30.67
2022-12-15T08:41:29.028Z,30.80
2022-12-15T08:44:17.095Z,33.28
2022-12-15T08:47:04.855Z,44.75
2022-12-15T08:49:53.077Z,35.55
2022-12-15T08:52:55.217Z,34.63
2022-12-15T08:55:50.125Z,31.92
2022-12-15T08:58:38.320Z,33.33
2022-12-15T09:01:27.342Z,33.03
2022-12-15T09:04:15.543Z,24.45
2022-12-15T09:07:03.099Z,28.23
2022-12-15T09:09:52.050Z,30.65
2022-12-15T09:12:39.601Z,27.02
2022-12-15T09:15:59.865Z,21.25
2022-12-15T09:18:35.815Z,18.70
2022-12-15T09:21:26.768Z,27.25
2022-12-15T09:24:23.252Z,24.63
2022-12-15T09:27:18.381Z,27.83
2022-12-15T09:30:07.186Z,17.88
2022-12-15T09:32:54.814Z,17.92
2022-12-15T09:35:42.209Z,19.85
2022-12-15T09:38:30.073Z,14.63
2022-12-15T09:41:24.180Z,32.75
2022-12-15T09:44:15.596Z,18.25
2022-12-15T09:47:14.430Z,17.98
2022-12-15T09:50:05.278Z,14.32
2022-12-15T09:52:56.843Z,23.35
2022-12-15T09:55:46.835Z,23.95
2022-12-15T09:58:46.126Z,24.55
2022-12-15T10:01:46.753Z,20.73
2022-12-15T10:04:44.640Z,16.13
2022-12-15T10:07:38.126Z,14.52
2022-12-15T10:10:32.584Z,16.00
2022-12-15T10:13:26.123Z,15.43
2022-12-15T10:16:22.422Z,17.70
2022-12-15T10:19:17.793Z,15.20
2022-12-15T10:22:05.714Z,13.10
2022-12-15T10:25:10.997Z,20.27
2022-12-15T10:28:17.656Z,14.50
2022-12-15T10:31:17.798Z,12.83
2022-12-15T10:34:12.691Z,13.30
2022-12-15T10:37:00.881Z,15.15
2022-12-15T10:39:51.020Z,14.73
2022-12-15T10:42:48.443Z,13.60
2022-12-15T10:45:39.999Z,15.40
2022-12-15T10:48:27.730Z,14.43
2022-12-15T10:51:29.121Z,13.05
2022-12-15T10:54:18.385Z,13.05
2022-12-15T10:57:18.442Z,12.60
2022-12-15T11:00:27.335Z,16.38
2022-12-15T11:03:24.106Z,14.95
2022-12-15T11:06:18.137Z,15.68
2022-12-15T11:09:28.437Z,12.77
2022-12-15T11:12:37.540Z,13.75
2022-12-15T11:15:50.733Z,13.45
2022-12-15T11:18:43.537Z,14.40
2022-12-15T11:21:34.116Z,14.70
2022-12-15T11:24:30.767Z,13.98
2022-12-15T11:27:26.110Z,15.32
2022-12-15T11:30:15.885Z,14.75
2022-12-15T11:33:04.211Z,15.05
2022-12-15T11:36:09.655Z,15.85
2022-12-15T11:39:04.255Z,14.35
2022-12-15T11:42:00.219Z,15.40
2022-12-15T11:44:58.715Z,16.05
2022-12-15T11:47:51.136Z,14.88
2022-12-15T11:50:55.115Z,14.43
2022-12-15T11:54:05.039Z,15.02
2022-12-15T11:57:00.770Z,14.95
2022-12-15T12:00:03.364Z,16.13
2022-12-15T12:03:16.567Z,13.98
2022-12-15T12:06:12.948Z,14.68
2022-12-15T12:09:19.626Z,12.60
2022-12-15T12:12:16.832Z,14.07
2022-12-15T12:18:12.953Z,12.60
2022-12-15T12:21:06.074Z,12.88
2022-12-15T12:23:59.147Z,13.98
2022-12-15T12:26:48.465Z,15.20
2022-12-15T12:29:45.309Z,16.20
2022-12-15T12:32:44.516Z,19.73
2022-12-15T12:35:39.301Z,18.38
2022-12-15T12:38:32.568Z,16.05
2022-12-15T12:41:32.299Z,14.77
2022-12-15T12:44:30.297Z,13.68
2022-12-15T12:47:25.582Z,12.45
2022-12-15T12:50:20.429Z,13.23
2022-12-15T12:53:26.175Z,13.95
2022-12-15T12:56:39.681Z,11.57
2022-12-15T12:59:37.766Z,13.43
2022-12-15T13:02:55.697Z,12.75
2022-12-15T13:05:45.209Z,20.07
2022-12-15T13:08:52.271Z,15.85
2022-12-15T13:12:00.837Z,13.10
2022-12-15T13:14:51.933Z,16.00
2022-12-15T13:17:45.484Z,14.65
2022-12-15T13:20:38.405Z,12.90
2022-12-15T13:23:42.657Z,13.50
2022-12-15T13:26:32.547Z,13.02
2022-12-15T13:29:23.826Z,15.05
2022-12-15T13:32:32.718Z,13.98
2022-12-15T13:35:27.403Z,13.27
2022-12-15T13:38:19.794Z,14.15
2022-12-15T13:41:23.860Z,13.82
2022-12-15T13:44:16.916Z,15.45
2022-12-15T13:47:11.788Z,15.88
2022-12-15T13:50:03.003Z,14.68
2022-12-15T13:56:15.342Z,15.85
2022-12-15T13:59:08.014Z,14.27
2022-12-15T14:01:56.056Z,15.25
2022-12-15T14:04:43.487Z,15.18
2022-12-15T14:07:31.148Z,13.55
2022-12-15T14:10:24.940Z,13.32
2022-12-15T14:13:16.439Z,13.52
2022-12-15T14:16:08.428Z,13.75
2022-12-15T14:19:11.478Z,15.77
2022-12-15T14:21:59.725Z,14.98
2022-12-15T14:24:49.938Z,14.65
2022-12-15T14:27:39.501Z,15.95
2022-12-15T14:30:29.606Z,14.30
2022-12-15T14:33:19.707Z,14.60
2022-12-15T14:36:11.268Z,14.38
2022-12-15T14:39:03.028Z,12.63
2022-12-15T14:41:52.652Z,12.40
2022-12-15T14:44:49.969Z,13.95
2022-12-15T14:47:39.040Z,14.70
2022-12-15T14:50:27.438Z,13.93
2022-12-15T14:53:23.855Z,11.65
2022-12-15T14:56:30.525Z,13.45
2022-12-15T14:59:20.903Z,12.15
2022-12-15T15:02:16.121Z,13.88
2022-12-15T15:05:07.805Z,13.65
2022-12-15T15:07:57.660Z,15.38
2022-12-15T15:10:45.382Z,14.85
2022-12-15T15:13:40.764Z,13.38
2022-12-15T15:16:29.192Z,14.80
2022-12-15T15:19:24.797Z,15.23
2022-12-15T15:22:28.585Z,16.40
2022-12-15T15:25:39.961Z,13.98
2022-12-15T15:28:30.731Z,12.77
2022-12-15T15:31:36.676Z,15.05
2022-12-15T15:34:29.144Z,15.98
2022-12-15T15:37:22.958Z,15.13
2022-12-15T15:40:15.891Z,16.92
2022-12-15T15:43:08.938Z,16.05
2022-12-15T15:46:06.394Z,14.88
2022-12-15T15:48:57.105Z,14.85
2022-12-15T15:51:46.046Z,27.45
2022-12-15T15:54:36.307Z,36.83
2022-12-15T15:57:24.688Z,57.40
2022-12-15T16:00:21.629Z,49.90
2022-12-15T16:03:09.341Z,43.50
2022-12-15T16:05:57.398Z,42.17
2022-12-15T16:08:47.963Z,39.90
2022-12-15T16:11:36.529Z,37.08
2022-12-15T16:14:24.298Z,32.63
2022-12-15T16:17:20.528Z,24.63
2022-12-15T16:20:09.679Z,24.50
2022-12-15T16:23:00.741Z,21.60
2022-12-15T16:25:52.922Z,23.13
2022-12-15T16:28:40.743Z,22.42
2022-12-15T16:31:35.645Z,23.85
2022-12-15T16:34:27.170Z,22.20
2022-12-15T16:37:26.190Z,19.80
2022-12-15T16:40:19.358Z,18.85
2022-12-15T16:43:15.873Z,18.42
2022-12-15T16:46:03.571Z,17.85
2022-12-15T16:48:51.907Z,18.20
2022-12-15T16:51:41.626Z,19.27
2022-12-15T16:54:32.339Z,18.38
2022-12-15T16:57:19.810Z,19.65
2022-12-15T17:00:20.186Z,16.25
2022-12-15T17:03:07.779Z,15.48
2022-12-15T17:05:57.568Z,16.27
2022-12-15T17:08:47.763Z,17.65
2022-12-15T17:11:35.160Z,18.40
2022-12-15T17:14:23.363Z,24.88
2022-12-15T17:17:15.570Z,24.95
2022-12-15T17:23:16.818Z,46.38
2022-12-15T17:26:27.968Z,42.30
2022-12-15T17:29:17.688Z,41.88
2022-12-15T17:32:07.047Z,42.25
2022-12-15T17:34:56.057Z,44.22
2022-12-15T17:37:44.896Z,35.15
2022-12-15T17:40:32.226Z,36.28
2022-12-15T17:43:27.156Z,37.45
2022-12-15T17:46:17.487Z,40.05
2022-12-15T17:49:06.217Z,31.63
2022-12-15T17:51:55.952Z,30.70
2022-12-15T17:54:43.481Z,28.25
2022-12-15T17:57:32.106Z,30.77
2022-12-15T18:00:22.960Z,28.67
2022-12-15T18:03:10.925Z,26.55
2022-12-15T18:05:58.809Z,25.13
2022-12-15T18:08:47.946Z,26.95
2022-12-15T18:11:35.525Z,24.15
2022-12-15T18:14:23.477Z,26.02
2022-12-15T18:17:11.111Z,23.48
2022-12-15T18:19:58.842Z,24.75
2022-12-15T18:22:47.042Z,22.88
2022-12-15T18:25:35.896Z,20.33
2022-12-15T18:28:25.428Z,22.83
2022-12-15T18:31:21.472Z,22.13
2022-12-15T18:34:13.924Z,20.30
2022-12-15T18:37:01.797Z,20.40
2022-12-15T18:39:50.769Z,20.95
2022-12-15T18:42:40.742Z,19.65
2022-12-15T18:45:28.718Z,17.85
2022-12-15T18:48:18.330Z,19.23
2022-12-15T18:51:17.555Z,19.48
2022-12-15T18:54:05.283Z,17.08
2022-12-15T18:56:53.109Z,18.80
2022-12-15T18:59:43.701Z,25.08
2022-12-15T19:02:31.559Z,21.92
2022-12-15T19:05:29.410Z,24.67
2022-12-15T19:08:24.630Z,26.15
2022-12-15T19:11:18.323Z,31.48
2022-12-15T19:14:31.764Z,46.92
2022-12-15T19:17:40.127Z,35.92
2022-12-15T19:20:45.374Z,33.10
2022-12-15T19:23:33.759Z,34.33
2022-12-15T19:26:21.419Z,37.75
2022-12-15T19:29:18.090Z,33.03
2022-12-15T19:32:05.735Z,30.67
2022-12-15T19:34:54.622Z,30.77
2022-12-15T19:37:44.493Z,32.58
2022-12-15T19:40:34.498Z,28.95
2022-12-15T19:43:23.508Z,28.48
2022-12-15T19:46:14.238Z,29.05
2022-12-15T19:49:01.559Z,30.33
2022-12-15T19:51:50.369Z,30.23
2022-12-15T19:54:37.969Z,34.33
2022-12-15T19:57:25.587Z,43.75
2022-12-15T20:00:17.648Z,49.25
2022-12-15T20:03:05.523Z,46.80
2022-12-15T20:05:55.554Z,48.92
2022-12-15T20:08:46.381Z,42.78
2022-12-15T20:11:34.877Z,39.90
2022-12-15T20:14:22.421Z,37.60
2022-12-15T20:17:10.175Z,37.97
2022-12-15T20:19:57.587Z,38.33
2022-12-15T20:22:47.372Z,37.45
2022-12-15T20:25:38.233Z,39.33
2022-12-15T20:28:28.077Z,49.58
2022-12-15T20:31:17.765Z,49.90
2022-12-15T20:34:05.448Z,51.42
2022-12-15T20:36:52.958Z,51.80
2022-12-15T20:39:41.652Z,47.83
2022-12-15T20:42:31.006Z,50.10
2022-12-15T20:45:20.984Z,50.20
2022-12-15T20:48:13.325Z,50.25
2022-12-15T20:51:04.501Z,53.00
2022-12-15T20:53:58.434Z,48.17
2022-12-15T20:56:47.768Z,48.80
2022-12-15T20:59:36.677Z,53.50
2022-12-15T21:02:25.254Z,56.80
2022-12-15T21:05:20.788Z,61.45
2022-12-15T21:08:15.574Z,58.22
2022-12-15T21:11:11.759Z,59.78
2022-12-15T21:14:04.213Z,58.40
2022-12-15T21:16:53.927Z,67.82
2022-12-15T21:19:42.621Z,73.82
2022-12-15T21:22:30.888Z,69.20
2022-12-15T21:25:24.840Z,62.72
2022-12-15T21:28:12.922Z,58.20
2022-12-15T21:31:01.851Z,56.97
2022-12-15T21:33:51.007Z,55.78
2022-12-15T21:36:41.326Z,55.28
2022-12-15T21:39:33.635Z,56.92
2022-12-15T21:42:22.159Z,56.50
2022-12-15T21:45:15.780Z,54.15
2022-12-15T21:48:20.508Z,53.05
2022-12-15T21:51:13.941Z,50.47
2022-12-15T21:54:02.687Z,50.72
2022-12-15T21:56:51.078Z,60.50
2022-12-15T21:59:40.068Z,55.50
2022-12-15T22:02:28.464Z,54.47
2022-12-15T22:05:19.024Z,58.65
2022-12-15T22:08:15.734Z,56.78
2022-12-15T22:11:03.484Z,50.40
2022-12-15T22:13:52.518Z,51.40
2022-12-15T22:16:43.162Z,51.90
2022-12-15T22:19:30.660Z,48.38
2022-12-15T22:22:18.437Z,49.92
2022-12-15T22:25:09.385Z,50.20
2022-12-15T22:27:57.880Z,53.83
2022-12-15T22:30:46.071Z,50.55
2022-12-15T22:33:33.650Z,59.20
2022-12-15T22:36:21.506Z,62.28
2022-12-15T22:39:11.105Z,52.30
2022-12-15T22:42:01.288Z,55.15
2022-12-15T22:44:48.992Z,56.85
2022-12-15T22:47:38.657Z,57.35
2022-12-15T22:50:27.555Z,61.00
2022-12-15T22:53:15.768Z,52.55
2022-12-15T22:56:07.906Z,54.35
2022-12-15T22:59:01.005Z,54.22
2022-12-15T23:01:48.708Z,56.47
2022-12-15T23:04:36.785Z,58.72
2022-12-15T23:07:24.178Z,55.75
2022-12-15T23:10:31.016Z,59.17
2022-12-15T23:13:19.415Z,52.88
2022-12-15T23:16:22.206Z,50.28
2022-12-15T23:19:23.521Z,54.75
2022-12-15T23:22:11.271Z,51.20
2022-12-15T23:24:58.753Z,50.47
2022-12-15T23:27:45.961Z,48.05
2022-12-15T23:30:33.198Z,44.55
2022-12-15T23:33:22.710Z,45.55
2022-12-15T23:36:11.020Z,49.58
2022-12-15T23:38:59.049Z,46.67
2022-12-15T23:41:46.339Z,44.22
2022-12-15T23:44:33.920Z,47.55
2022-12-15T23:47:21.662Z,44.47
2022-12-15T23:50:11.306Z,46.40
2022-12-15T23:52:58.897Z,43.55
2022-12-15T23:55:46.267Z,45.17
2022-12-15T23:58:33.907Z,46.47
